sensor_id;sensor_type;location;lat;lon;timestamp;pressure;altitude;pressure_sealevel;temperature;humidity
20455;BME280;10386;54.314;10.022;2023-05-23T00:01:37;101424.50;;;14.81;100.00
20455;BME280;10386;54.314;10.022;2023-05-23T00:04:04;101416.94;;;14.95;100.00
20455;BME280;10386;54.314;10.022;2023-05-23T00:06:31;101406.59;;;14.88;100.00
20455;BME280;10386;54.314;10.022;2023-05-23T00:08:59;101401.03;;;14.89;100.00
20455;BME280;10386;54.314;10.022;2023-05-23T00:11:26;101399.78;;;15.04;100.00
20455;BME280;10386;54.314;10.022;2023-05-23T00:13:55;101399.03;;;15.02;100.00
20455;BME280;10386;54.314;10.022;2023-05-23T00:16:22;101388.97;;;15.03;100.00
20455;BME280;10386;54.314;10.022;2023-05-23T00:18:49;101380.16;;;15.10;100.00
20455;BME280;10386;54.314;10.022;2023-05-23T00:21:17;101384.63;;;15.00;100.00
20455;BME280;10386;54.314;10.022;2023-05-23T00:23:44;101377.78;;;14.95;100.00
20455;BME280;10386;54.314;10.022;2023-05-23T00:26:12;101383.00;;;14.98;100.00
20455;BME280;10386;54.314;10.022;2023-05-23T00:28:38;101369.97;;;15.01;100.00
20455;BME280;10386;54.314;10.022;2023-05-23T00:31:05;101355.91;;;15.38;100.00
20455;BME280;10386;54.314;10.022;2023-05-23T00:33:32;101360.00;;;15.11;100.00
20455;BME280;10386;54.314;10.022;2023-05-23T00:36:02;101360.00;;;15.22;100.00
20455;BME280;10386;54.314;10.022;2023-05-23T00:38:29;101359.50;;;15.06;100.00
20455;BME280;10386;54.314;10.022;2023-05-23T00:40:59;101364.84;;;14.97;100.00
20455;BME280;10386;54.314;10.022;2023-05-23T00:43:26;101359.63;;;14.94;100.00
20455;BME280;10386;54.314;10.022;2023-05-23T00:45:52;101358.88;;;14.92;100.00
20455;BME280;10386;54.314;10.022;2023-05-23T00:48:20;101369.31;;;14.87;100.00
20455;BME280;10386;54.314;10.022;2023-05-23T00:50:46;101376.38;;;14.78;100.00
20455;BME280;10386;54.314;10.022;2023-05-23T00:53:13;101373.63;;;14.67;100.00
20455;BME280;10386;54.314;10.022;2023-05-23T00:55:40;101359.09;;;14.56;100.00
20455;BME280;10386;54.314;10.022;2023-05-23T00:58:08;101361.78;;;14.45;100.00
20455;BME280;10386;54.314;10.022;2023-05-23T01:00:35;101354.13;;;14.50;100.00
20455;BME280;10386;54.314;10.022;2023-05-23T01:03:03;101343.72;;;14.66;100.00
20455;BME280;10386;54.314;10.022;2023-05-23T01:05:31;101333.03;;;14.85;100.00
20455;BME280;10386;54.314;10.022;2023-05-23T01:07:57;101323.94;;;14.73;100.00
20455;BME280;10386;54.314;10.022;2023-05-23T01:10:26;101319.47;;;14.61;100.00
20455;BME280;10386;54.314;10.022;2023-05-23T01:18:52;101203.31;;;14.78;100.00
20455;BME280;10386;54.314;10.022;2023-05-23T01:21:24;101193.16;;;14.58;100.00
20455;BME280;10386;54.314;10.022;2023-05-23T01:24:13;101182.56;;;14.64;100.00
20455;BME280;10386;54.314;10.022;2023-05-23T01:27:00;101154.34;;;14.86;100.00
20455;BME280;10386;54.314;10.022;2023-05-23T01:29:34;101144.03;;;14.78;100.00
20455;BME280;10386;54.314;10.022;2023-05-23T01:32:06;101139.47;;;14.68;100.00
20455;BME280;10386;54.314;10.022;2023-05-23T01:34:34;101127.66;;;14.67;100.00
20455;BME280;10386;54.314;10.022;2023-05-23T01:37:07;101121.09;;;14.70;100.00
20455;BME280;10386;54.314;10.022;2023-05-23T01:39:35;101118.06;;;14.84;100.00
20455;BME280;10386;54.314;10.022;2023-05-23T01:42:02;101111.38;;;14.77;100.00
20455;BME280;10386;54.314;10.022;2023-05-23T01:44:30;101114.84;;;14.79;100.00
20455;BME280;10386;54.314;10.022;2023-05-23T01:46:58;101103.34;;;14.96;100.00
20455;BME280;10386;54.314;10.022;2023-05-23T01:49:28;101105.16;;;14.75;100.00
20455;BME280;10386;54.314;10.022;2023-05-23T01:51:58;101105.94;;;14.66;100.00
20455;BME280;10386;54.314;10.022;2023-05-23T01:54:26;101101.34;;;14.55;100.00
20455;BME280;10386;54.314;10.022;2023-05-23T01:56:58;101099.88;;;14.51;100.00
20455;BME280;10386;54.314;10.022;2023-05-23T01:59:26;101098.03;;;14.41;100.00
20455;BME280;10386;54.314;10.022;2023-05-23T02:01:53;101097.69;;;14.34;100.00
20455;BME280;10386;54.314;10.022;2023-05-23T02:04:20;101066.75;;;14.34;100.00
20455;BME280;10386;54.314;10.022;2023-05-23T02:06:47;101066.78;;;14.23;100.00
20455;BME280;10386;54.314;10.022;2023-05-23T02:09:14;101055.00;;;14.22;100.00
20455;BME280;10386;54.314;10.022;2023-05-23T02:11:42;101052.53;;;14.19;100.00
20455;BME280;10386;54.314;10.022;2023-05-23T02:14:09;101042.81;;;14.26;100.00
20455;BME280;10386;54.314;10.022;2023-05-23T02:16:36;101033.91;;;14.24;100.00
20455;BME280;10386;54.314;10.022;2023-05-23T02:19:03;101025.59;;;14.15;100.00
20455;BME280;10386;54.314;10.022;2023-05-23T02:21:30;101027.19;;;14.06;100.00
20455;BME280;10386;54.314;10.022;2023-05-23T02:24:00;101022.09;;;14.02;100.00
20455;BME280;10386;54.314;10.022;2023-05-23T02:26:27;101013.53;;;13.95;100.00
20455;BME280;10386;54.314;10.022;2023-05-23T02:28:54;101025.59;;;13.93;100.00
20455;BME280;10386;54.314;10.022;2023-05-23T02:31:20;101013.16;;;14.00;100.00
20455;BME280;10386;54.314;10.022;2023-05-23T02:33:47;101001.50;;;14.09;100.00
20455;BME280;10386;54.314;10.022;2023-05-23T02:36:14;100993.44;;;13.96;100.00
20455;BME280;10386;54.314;10.022;2023-05-23T02:38:41;100991.84;;;13.83;100.00
20455;BME280;10386;54.314;10.022;2023-05-23T02:41:08;100975.59;;;13.81;100.00
20455;BME280;10386;54.314;10.022;2023-05-23T02:43:38;100952.66;;;13.84;100.00
20455;BME280;10386;54.314;10.022;2023-05-23T02:46:05;100933.22;;;14.09;100.00
20455;BME280;10386;54.314;10.022;2023-05-23T02:48:31;100930.91;;;14.15;100.00
20455;BME280;10386;54.314;10.022;2023-05-23T02:50:58;100930.38;;;14.10;100.00
20455;BME280;10386;54.314;10.022;2023-05-23T02:53:25;100916.00;;;14.08;100.00
20455;BME280;10386;54.314;10.022;2023-05-23T02:55:52;100915.53;;;14.03;100.00
20455;BME280;10386;54.314;10.022;2023-05-23T02:58:19;100912.00;;;14.12;100.00
20455;BME280;10386;54.314;10.022;2023-05-23T03:00:46;100903.81;;;14.23;100.00
20455;BME280;10386;54.314;10.022;2023-05-23T03:03:13;100894.22;;;14.29;100.00
20455;BME280;10386;54.314;10.022;2023-05-23T03:05:39;100886.94;;;14.18;100.00
20455;BME280;10386;54.314;10.022;2023-05-23T03:08:07;100886.69;;;14.10;100.00
20455;BME280;10386;54.314;10.022;2023-05-23T03:10:34;100887.69;;;14.09;100.00
20455;BME280;10386;54.314;10.022;2023-05-23T03:13:01;100883.25;;;14.08;100.00
20455;BME280;10386;54.314;10.022;2023-05-23T03:15:28;100870.06;;;14.13;100.00
20455;BME280;10386;54.314;10.022;2023-05-23T03:17:55;100866.09;;;14.17;100.00
20455;BME280;10386;54.314;10.022;2023-05-23T03:20:22;100867.69;;;14.09;100.00
20455;BME280;10386;54.314;10.022;2023-05-23T03:22:49;100849.75;;;14.06;100.00
20455;BME280;10386;54.314;10.022;2023-05-23T03:25:15;100839.66;;;14.18;100.00
20455;BME280;10386;54.314;10.022;2023-05-23T03:27:42;100840.38;;;14.20;100.00
20455;BME280;10386;54.314;10.022;2023-05-23T03:30:09;100833.66;;;14.24;100.00
20455;BME280;10386;54.314;10.022;2023-05-23T03:32:36;100836.34;;;14.14;100.00
20455;BME280;10386;54.314;10.022;2023-05-23T03:35:04;100811.59;;;14.16;100.00
20455;BME280;10386;54.314;10.022;2023-05-23T03:37:31;100803.66;;;14.13;100.00
20455;BME280;10386;54.314;10.022;2023-05-23T03:39:57;100802.72;;;14.03;100.00
20455;BME280;10386;54.314;10.022;2023-05-23T03:42:24;100787.97;;;13.94;100.00
20455;BME280;10386;54.314;10.022;2023-05-23T03:44:51;100778.59;;;14.08;100.00
20455;BME280;10386;54.314;10.022;2023-05-23T03:47:18;100765.38;;;14.03;100.00
20455;BME280;10386;54.314;10.022;2023-05-23T03:49:45;100766.94;;;14.06;100.00
20455;BME280;10386;54.314;10.022;2023-05-23T03:52:11;100759.88;;;14.14;100.00
20455;BME280;10386;54.314;10.022;2023-05-23T03:54:38;100757.63;;;14.19;100.00
20455;BME280;10386;54.314;10.022;2023-05-23T03:57:05;100753.88;;;14.20;100.00
20455;BME280;10386;54.314;10.022;2023-05-23T03:59:32;100754.16;;;14.17;100.00
20455;BME280;10386;54.314;10.022;2023-05-23T04:01:59;100756.00;;;14.17;100.00
20455;BME280;10386;54.314;10.022;2023-05-23T04:04:27;100752.00;;;14.21;100.00
20455;BME280;10386;54.314;10.022;2023-05-23T04:06:54;100756.47;;;14.22;100.00
20455;BME280;10386;54.314;10.022;2023-05-23T04:09:22;100751.69;;;14.14;100.00
20455;BME280;10386;54.314;10.022;2023-05-23T04:11:50;100746.00;;;14.06;100.00
20455;BME280;10386;54.314;10.022;2023-05-23T04:14:17;100742.13;;;14.09;100.00
20455;BME280;10386;54.314;10.022;2023-05-23T04:16:45;100742.84;;;14.11;100.00
20455;BME280;10386;54.314;10.022;2023-05-23T04:19:13;100747.13;;;14.04;100.00
20455;BME280;10386;54.314;10.022;2023-05-23T04:21:40;100746.56;;;13.89;100.00
20455;BME280;10386;54.314;10.022;2023-05-23T04:24:07;100736.06;;;13.85;100.00
20455;BME280;10386;54.314;10.022;2023-05-23T04:26:33;100728.34;;;13.90;100.00
20455;BME280;10386;54.314;10.022;2023-05-23T04:29:02;100727.78;;;13.76;100.00
20455;BME280;10386;54.314;10.022;2023-05-23T04:31:29;100714.88;;;13.77;100.00
20455;BME280;10386;54.314;10.022;2023-05-23T04:33:56;100712.56;;;13.73;100.00
20455;BME280;10386;54.314;10.022;2023-05-23T04:36:23;100718.50;;;13.78;100.00
20455;BME280;10386;54.314;10.022;2023-05-23T04:38:51;100711.16;;;13.78;100.00
20455;BME280;10386;54.314;10.022;2023-05-23T04:41:20;100703.38;;;13.74;100.00
20455;BME280;10386;54.314;10.022;2023-05-23T04:43:50;100700.50;;;13.76;100.00
20455;BME280;10386;54.314;10.022;2023-05-23T04:46:20;100682.88;;;13.79;100.00
20455;BME280;10386;54.314;10.022;2023-05-23T04:48:52;100648.59;;;13.86;100.00
20455;BME280;10386;54.314;10.022;2023-05-23T04:51:20;100647.75;;;13.86;100.00
20455;BME280;10386;54.314;10.022;2023-05-23T04:53:48;100637.28;;;13.91;100.00
20455;BME280;10386;54.314;10.022;2023-05-23T04:56:15;100647.75;;;13.86;100.00
20455;BME280;10386;54.314;10.022;2023-05-23T04:58:53;100641.41;;;13.85;100.00
20455;BME280;10386;54.314;10.022;2023-05-23T05:01:21;100646.28;;;13.82;100.00
20455;BME280;10386;54.314;10.022;2023-05-23T05:03:54;100644.28;;;13.84;100.00
20455;BME280;10386;54.314;10.022;2023-05-23T05:06:22;100651.72;;;13.82;100.00
20455;BME280;10386;54.314;10.022;2023-05-23T05:08:52;100630.22;;;13.88;100.00
20455;BME280;10386;54.314;10.022;2023-05-23T05:11:19;100621.44;;;13.85;100.00
20455;BME280;10386;54.314;10.022;2023-05-23T05:13:48;100618.19;;;13.91;100.00
20455;BME280;10386;54.314;10.022;2023-05-23T05:16:18;100612.03;;;13.98;100.00
20455;BME280;10386;54.314;10.022;2023-05-23T05:18:45;100609.84;;;13.92;100.00
20455;BME280;10386;54.314;10.022;2023-05-23T05:21:12;100603.25;;;13.95;100.00
20455;BME280;10386;54.314;10.022;2023-05-23T05:23:46;100592.41;;;14.04;100.00
20455;BME280;10386;54.314;10.022;2023-05-23T05:26:15;100595.53;;;14.00;100.00
20455;BME280;10386;54.314;10.022;2023-05-23T05:28:42;100593.63;;;14.00;100.00
20455;BME280;10386;54.314;10.022;2023-05-23T05:31:10;100589.44;;;13.96;100.00
20455;BME280;10386;54.314;10.022;2023-05-23T05:33:40;100591.72;;;13.91;100.00
20455;BME280;10386;54.314;10.022;2023-05-23T05:36:11;100597.19;;;13.91;100.00
20455;BME280;10386;54.314;10.022;2023-05-23T05:38:38;100593.34;;;13.94;100.00
20455;BME280;10386;54.314;10.022;2023-05-23T05:41:05;100588.72;;;13.94;100.00
20455;BME280;10386;54.314;10.022;2023-05-23T05:43:34;100589.16;;;13.90;100.00
20455;BME280;10386;54.314;10.022;2023-05-23T05:46:01;100588.88;;;13.93;100.00
20455;BME280;10386;54.314;10.022;2023-05-23T05:48:28;100598.34;;;13.89;100.00
20455;BME280;10386;54.314;10.022;2023-05-23T05:50:55;100599.66;;;13.94;100.00
20455;BME280;10386;54.314;10.022;2023-05-23T05:53:22;100600.25;;;13.98;100.00
20455;BME280;10386;54.314;10.022;2023-05-23T05:55:48;100606.72;;;13.97;100.00
20455;BME280;10386;54.314;10.022;2023-05-23T05:58:15;100608.66;;;13.85;100.00
20455;BME280;10386;54.314;10.022;2023-05-23T06:00:42;100623.56;;;13.81;100.00
20455;BME280;10386;54.314;10.022;2023-05-23T06:03:09;100622.56;;;13.82;100.00
20455;BME280;10386;54.314;10.022;2023-05-23T06:05:36;100628.44;;;13.78;100.00
20455;BME280;10386;54.314;10.022;2023-05-23T06:08:05;100481.28;;;13.86;100.00
20455;BME280;10386;54.314;10.022;2023-05-23T06:10:32;100485.28;;;13.82;100.00
20455;BME280;10386;54.314;10.022;2023-05-23T06:12:59;100482.09;;;13.77;100.00
20455;BME280;10386;54.314;10.022;2023-05-23T06:15:25;100488.84;;;13.73;100.00
20455;BME280;10386;54.314;10.022;2023-05-23T06:17:52;100483.38;;;13.73;100.00
20455;BME280;10386;54.314;10.022;2023-05-23T06:20:19;100491.88;;;13.79;100.00
20455;BME280;10386;54.314;10.022;2023-05-23T06:22:47;100481.22;;;13.77;100.00
20455;BME280;10386;54.314;10.022;2023-05-23T06:25:14;100480.38;;;13.76;100.00
20455;BME280;10386;54.314;10.022;2023-05-23T06:27:40;100483.84;;;13.78;100.00
20455;BME280;10386;54.314;10.022;2023-05-23T06:30:07;100484.56;;;13.80;100.00
20455;BME280;10386;54.314;10.022;2023-05-23T06:32:34;100483.13;;;13.85;100.00
20455;BME280;10386;54.314;10.022;2023-05-23T06:35:02;100481.38;;;13.84;100.00
20455;BME280;10386;54.314;10.022;2023-05-23T06:37:29;100484.00;;;13.86;100.00
20455;BME280;10386;54.314;10.022;2023-05-23T06:39:56;100475.97;;;13.94;100.00
20455;BME280;10386;54.314;10.022;2023-05-23T06:42:23;100420.22;;;13.87;100.00
20455;BME280;10386;54.314;10.022;2023-05-23T06:44:49;100417.78;;;13.84;100.00
20455;BME280;10386;54.314;10.022;2023-05-23T06:47:16;100404.13;;;13.84;100.00
20455;BME280;10386;54.314;10.022;2023-05-23T06:49:43;100413.34;;;13.83;100.00
20455;BME280;10386;54.314;10.022;2023-05-23T06:52:11;100417.22;;;13.90;100.00
20455;BME280;10386;54.314;10.022;2023-05-23T06:54:37;100405.88;;;13.85;100.00
20455;BME280;10386;54.314;10.022;2023-05-23T06:57:04;100413.63;;;13.80;100.00
20455;BME280;10386;54.314;10.022;2023-05-23T06:59:31;100402.53;;;13.81;100.00
20455;BME280;10386;54.314;10.022;2023-05-23T07:01:58;100401.09;;;13.77;100.00
20455;BME280;10386;54.314;10.022;2023-05-23T07:04:24;100394.91;;;13.76;100.00
20455;BME280;10386;54.314;10.022;2023-05-23T07:06:52;100396.06;;;13.82;100.00
20455;BME280;10386;54.314;10.022;2023-05-23T07:09:19;100395.19;;;13.73;100.00
20455;BME280;10386;54.314;10.022;2023-05-23T07:11:46;100390.75;;;13.72;100.00
20455;BME280;10386;54.314;10.022;2023-05-23T07:14:14;100405.25;;;13.72;100.00
20455;BME280;10386;54.314;10.022;2023-05-23T07:16:41;100398.09;;;13.71;100.00
20455;BME280;10386;54.314;10.022;2023-05-23T07:19:12;100388.28;;;13.69;100.00
20455;BME280;10386;54.314;10.022;2023-05-23T07:21:39;100389.03;;;13.71;100.00
20455;BME280;10386;54.314;10.022;2023-05-23T07:24:05;100390.19;;;13.68;100.00
20455;BME280;10386;54.314;10.022;2023-05-23T07:26:32;100394.47;;;13.71;100.00
20455;BME280;10386;54.314;10.022;2023-05-23T07:28:59;100387.72;;;13.65;100.00
20455;BME280;10386;54.314;10.022;2023-05-23T07:31:26;100269.84;;;13.62;100.00
20455;BME280;10386;54.314;10.022;2023-05-23T07:33:53;100269.84;;;13.62;100.00
20455;BME280;10386;54.314;10.022;2023-05-23T07:36:22;100276.88;;;13.55;100.00
20455;BME280;10386;54.314;10.022;2023-05-23T07:38:49;100214.69;;;13.39;100.00
20455;BME280;10386;54.314;10.022;2023-05-23T07:41:16;100216.13;;;13.34;100.00
20455;BME280;10386;54.314;10.022;2023-05-23T07:43:42;100217.00;;;13.44;100.00
20455;BME280;10386;54.314;10.022;2023-05-23T07:46:09;100213.09;;;13.27;100.00
20455;BME280;10386;54.314;10.022;2023-05-23T07:48:36;100212.25;;;13.27;100.00
20455;BME280;10386;54.314;10.022;2023-05-23T07:51:03;100207.66;;;13.37;100.00
20455;BME280;10386;54.314;10.022;2023-05-23T07:53:30;100207.66;;;13.37;100.00
20455;BME280;10386;54.314;10.022;2023-05-23T07:55:56;100202.94;;;13.48;100.00
20455;BME280;10386;54.314;10.022;2023-05-23T07:58:23;100184.41;;;13.42;100.00
20455;BME280;10386;54.314;10.022;2023-05-23T08:00:50;100187.13;;;13.42;100.00
20455;BME280;10386;54.314;10.022;2023-05-23T08:03:18;100184.41;;;13.42;100.00
20455;BME280;10386;54.314;10.022;2023-05-23T08:05:46;100179.13;;;13.60;100.00
20455;BME280;10386;54.314;10.022;2023-05-23T08:08:12;100184.25;;;13.53;100.00
20455;BME280;10386;54.314;10.022;2023-05-23T08:10:39;100181.13;;;13.58;100.00
20455;BME280;10386;54.314;10.022;2023-05-23T08:13:08;100190.28;;;13.47;100.00
20455;BME280;10386;54.314;10.022;2023-05-23T08:15:35;100193.03;;;13.47;100.00
20455;BME280;10386;54.314;10.022;2023-05-23T08:18:03;100193.63;;;13.51;100.00
20455;BME280;10386;54.314;10.022;2023-05-23T08:20:30;100185.56;;;13.49;100.00
20455;BME280;10386;54.314;10.022;2023-05-23T08:23:00;100192.19;;;13.47;100.00
20455;BME280;10386;54.314;10.022;2023-05-23T08:25:28;100194.31;;;13.43;100.00
20455;BME280;10386;54.314;10.022;2023-05-23T08:27:58;100209.38;;;13.28;100.00
20455;BME280;10386;54.314;10.022;2023-05-23T08:30:27;100218.22;;;13.11;100.00
20455;BME280;10386;54.314;10.022;2023-05-23T08:32:54;100212.34;;;13.06;100.00
20455;BME280;10386;54.314;10.022;2023-05-23T08:35:23;100218.47;;;12.99;100.00
20455;BME280;10386;54.314;10.022;2023-05-23T08:37:50;100221.00;;;12.81;100.00
20455;BME280;10386;54.314;10.022;2023-05-23T08:40:19;100221.78;;;12.72;100.00
20455;BME280;10386;54.314;10.022;2023-05-23T08:42:47;100222.50;;;12.65;100.00
20455;BME280;10386;54.314;10.022;2023-05-23T08:45:16;100225.69;;;12.49;100.00
20455;BME280;10386;54.314;10.022;2023-05-23T08:47:44;100218.81;;;12.45;100.00
20455;BME280;10386;54.314;10.022;2023-05-23T08:50:16;100226.22;;;12.34;100.00
20455;BME280;10386;54.314;10.022;2023-05-23T08:52:56;100218.28;;;12.31;100.00
20455;BME280;10386;54.314;10.022;2023-05-23T08:55:27;100213.59;;;12.33;100.00
20455;BME280;10386;54.314;10.022;2023-05-23T08:57:56;100212.13;;;12.29;100.00
20455;BME280;10386;54.314;10.022;2023-05-23T09:00:26;100202.28;;;12.38;100.00
20455;BME280;10386;54.314;10.022;2023-05-23T09:02:53;100215.06;;;12.37;100.00
20455;BME280;10386;54.314;10.022;2023-05-23T09:05:20;100218.16;;;12.33;100.00
20455;BME280;10386;54.314;10.022;2023-05-23T09:07:48;100219.28;;;12.30;100.00
20455;BME280;10386;54.314;10.022;2023-05-23T09:10:18;100226.00;;;12.26;100.00
20455;BME280;10386;54.314;10.022;2023-05-23T09:12:48;100222.44;;;12.26;100.00
20455;BME280;10386;54.314;10.022;2023-05-23T09:15:14;100219.44;;;12.29;100.00
20455;BME280;10386;54.314;10.022;2023-05-23T09:17:43;100226.72;;;12.28;100.00
20455;BME280;10386;54.314;10.022;2023-05-23T09:20:15;100228.34;;;12.31;100.00
20455;BME280;10386;54.314;10.022;2023-05-23T09:22:47;100212.19;;;12.38;100.00
20455;BME280;10386;54.314;10.022;2023-05-23T09:25:14;100224.78;;;12.39;100.00
20455;BME280;10386;54.314;10.022;2023-05-23T09:27:41;100221.34;;;12.38;100.00
20455;BME280;10386;54.314;10.022;2023-05-23T09:30:12;100219.78;;;12.35;100.00
20455;BME280;10386;54.314;10.022;2023-05-23T09:32:39;100225.25;;;12.44;100.00
20455;BME280;10386;54.314;10.022;2023-05-23T09:35:08;100208.25;;;12.52;100.00
20455;BME280;10386;54.314;10.022;2023-05-23T09:37:42;100225.25;;;12.44;100.00
20455;BME280;10386;54.314;10.022;2023-05-23T09:40:13;100221.13;;;12.50;100.00
20455;BME280;10386;54.314;10.022;2023-05-23T09:42:41;100215.88;;;12.58;100.00
20455;BME280;10386;54.314;10.022;2023-05-23T09:45:10;100213.03;;;12.69;100.00
20455;BME280;10386;54.314;10.022;2023-05-23T09:47:37;100199.03;;;12.83;100.00
20455;BME280;10386;54.314;10.022;2023-05-23T09:50:05;100223.06;;;12.68;100.00
20455;BME280;10386;54.314;10.022;2023-05-23T09:52:36;100220.66;;;12.75;100.00
20455;BME280;10386;54.314;10.022;2023-05-23T09:55:04;100233.69;;;12.71;100.00
20455;BME280;10386;54.314;10.022;2023-05-23T09:57:34;100233.88;;;12.79;100.00
20455;BME280;10386;54.314;10.022;2023-05-23T10:00:03;100241.56;;;12.65;100.00
20455;BME280;10386;54.314;10.022;2023-05-23T10:03:09;100226.22;;;12.73;100.00
20455;BME280;10386;54.314;10.022;2023-05-23T10:05:49;100280.03;;;12.51;100.00
20455;BME280;10386;54.314;10.022;2023-05-23T10:08:22;100276.16;;;12.53;100.00
20455;BME280;10386;54.314;10.022;2023-05-23T10:13:24;100320.81;;;12.41;100.00
20455;BME280;10386;54.314;10.022;2023-05-23T10:16:03;100329.25;;;12.59;100.00
20455;BME280;10386;54.314;10.022;2023-05-23T10:18:39;100345.97;;;12.75;100.00
20455;BME280;10386;54.314;10.022;2023-05-23T10:21:11;100350.91;;;13.11;100.00
20455;BME280;10386;54.314;10.022;2023-05-23T10:23:38;100373.16;;;13.16;100.00
20455;BME280;10386;54.314;10.022;2023-05-23T10:26:05;100396.47;;;12.99;100.00
20455;BME280;10386;54.314;10.022;2023-05-23T10:28:32;100416.53;;;12.98;100.00
20455;BME280;10386;54.314;10.022;2023-05-23T10:30:59;100443.06;;;12.96;100.00
20455;BME280;10386;54.314;10.022;2023-05-23T10:33:29;100470.53;;;12.73;100.00
20455;BME280;10386;54.314;10.022;2023-05-23T10:41:19;100522.59;;;12.90;100.00
20455;BME280;10386;54.314;10.022;2023-05-23T10:44:01;100551.19;;;12.85;100.00
20455;BME280;10386;54.314;10.022;2023-05-23T10:46:51;100569.94;;;13.10;100.00
20455;BME280;10386;54.314;10.022;2023-05-23T10:49:20;100594.25;;;13.02;100.00
20455;BME280;10386;54.314;10.022;2023-05-23T10:51:50;100632.59;;;12.78;100.00
20455;BME280;10386;54.314;10.022;2023-05-23T10:54:20;100650.66;;;12.79;100.00
20455;BME280;10386;54.314;10.022;2023-05-23T10:56:47;100694.72;;;12.73;100.00
20455;BME280;10386;54.314;10.022;2023-05-23T10:59:28;100705.09;;;13.12;100.00
20455;BME280;10386;54.314;10.022;2023-05-23T11:01:55;100733.56;;;13.30;100.00
20455;BME280;10386;54.314;10.022;2023-05-23T11:04:26;100774.47;;;13.62;100.00
20455;BME280;10386;54.314;10.022;2023-05-23T11:06:55;100760.28;;;13.99;100.00
20455;BME280;10386;54.314;10.022;2023-05-23T11:09:22;100806.00;;;14.38;100.00
20455;BME280;10386;54.314;10.022;2023-05-23T11:14:16;100902.09;;;14.63;100.00
20455;BME280;10386;54.314;10.022;2023-05-23T11:16:44;100969.38;;;14.44;100.00
20455;BME280;10386;54.314;10.022;2023-05-23T11:21:49;101104.03;;;14.77;100.00
20455;BME280;10386;54.314;10.022;2023-05-23T11:24:16;101153.75;;;14.71;100.00
20455;BME280;10386;54.314;10.022;2023-05-23T11:26:52;101209.91;;;14.42;100.00
20455;BME280;10386;54.314;10.022;2023-05-23T11:29:20;101261.34;;;14.59;100.00
20455;BME280;10386;54.314;10.022;2023-05-23T11:31:47;101416.81;;;14.17;100.00
20455;BME280;10386;54.314;10.022;2023-05-23T11:34:14;101446.13;;;14.15;100.00
20455;BME280;10386;54.314;10.022;2023-05-23T11:36:41;101476.56;;;14.21;100.00
20455;BME280;10386;54.314;10.022;2023-05-23T11:39:08;101492.53;;;14.38;100.00
20455;BME280;10386;54.314;10.022;2023-05-23T11:41:35;101520.72;;;14.39;100.00
20455;BME280;10386;54.314;10.022;2023-05-23T11:44:10;101560.72;;;14.40;100.00
20455;BME280;10386;54.314;10.022;2023-05-23T11:46:38;101569.22;;;14.48;100.00
20455;BME280;10386;54.314;10.022;2023-05-23T11:49:11;101595.44;;;14.50;100.00
20455;BME280;10386;54.314;10.022;2023-05-23T11:51:38;101607.22;;;14.27;100.00
20455;BME280;10386;54.314;10.022;2023-05-23T11:54:05;101638.34;;;14.12;100.00
20455;BME280;10386;54.314;10.022;2023-05-23T11:56:38;101643.22;;;14.45;100.00
20455;BME280;10386;54.314;10.022;2023-05-23T11:59:05;101650.66;;;14.43;100.00
20455;BME280;10386;54.314;10.022;2023-05-23T12:01:32;101669.06;;;14.28;100.00
20455;BME280;10386;54.314;10.022;2023-05-23T12:04:10;101664.81;;;14.60;100.00
20455;BME280;10386;54.314;10.022;2023-05-23T12:06:39;101685.28;;;14.55;100.00
20455;BME280;10386;54.314;10.022;2023-05-23T12:09:12;101701.25;;;14.48;100.00
20455;BME280;10386;54.314;10.022;2023-05-23T12:11:40;101712.19;;;14.48;100.00
20455;BME280;10386;54.314;10.022;2023-05-23T12:14:08;101719.81;;;14.56;100.00
20455;BME280;10386;54.314;10.022;2023-05-23T12:16:37;101710.94;;;14.65;100.00
20455;BME280;10386;54.314;10.022;2023-05-23T12:19:08;101720.06;;;14.40;100.00
20455;BME280;10386;54.314;10.022;2023-05-23T12:21:45;101737.88;;;14.21;100.00
20455;BME280;10386;54.314;10.022;2023-05-23T12:26:52;101746.53;;;14.88;100.00
20455;BME280;10386;54.314;10.022;2023-05-23T12:29:21;101748.03;;;14.44;100.00
20455;BME280;10386;54.314;10.022;2023-05-23T12:31:53;101749.34;;;14.51;100.00
20455;BME280;10386;54.314;10.022;2023-05-23T12:34:20;101753.06;;;14.50;100.00
20455;BME280;10386;54.314;10.022;2023-05-23T12:36:47;101748.69;;;14.60;100.00
20455;BME280;10386;54.314;10.022;2023-05-23T12:39:29;101755.97;;;15.08;100.00
20455;BME280;10386;54.314;10.022;2023-05-23T12:42:08;101763.41;;;15.06;100.00
20455;BME280;10386;54.314;10.022;2023-05-23T12:44:35;101775.69;;;15.00;100.00
20455;BME280;10386;54.314;10.022;2023-05-23T12:47:03;101774.00;;;14.74;100.00
20455;BME280;10386;54.314;10.022;2023-05-23T12:49:30;101778.94;;;14.69;100.00
20455;BME280;10386;54.314;10.022;2023-05-23T12:51:56;101788.38;;;14.40;100.00
20455;BME280;10386;54.314;10.022;2023-05-23T12:54:23;101792.59;;;14.69;100.00
20455;BME280;10386;54.314;10.022;2023-05-23T12:56:50;101768.78;;;14.59;100.00
20455;BME280;10386;54.314;10.022;2023-05-23T12:59:17;101771.84;;;14.54;100.00